createdAt,value
2022-12-08T00:00:02.513Z,4.22
2022-12-08T00:00:12.503Z,4.16
2022-12-08T00:00:22.327Z,4.18
2022-12-08T00:00:32.460Z,4.21
2022-12-08T00:00:42.469Z,4.21
2022-12-08T00:00:52.341Z,4.21
2022-12-08T00:01:02.360Z,4.21
2022-12-08T00:01:12.289Z,4.22
2022-12-08T00:01:22.510Z,4.21
2022-12-08T00:01:32.485Z,4.26
2022-12-08T00:01:42.496Z,4.22
2022-12-08T00:01:52.502Z,4.21
2022-12-08T00:02:02.649Z,4.26
2022-12-08T00:02:12.462Z,4.15
2022-12-08T00:02:22.533Z,4.22
2022-12-08T00:02:32.534Z,4.19
2022-12-08T00:02:42.539Z,4.16
2022-12-08T00:02:52.469Z,4.24
2022-12-08T00:03:02.489Z,4.22
2022-12-08T00:03:12.577Z,4.16
2022-12-08T00:03:22.545Z,4.16
2022-12-08T00:03:32.660Z,4.21
2022-12-08T00:03:42.347Z,4.21
2022-12-08T00:03:52.364Z,4.24
2022-12-08T00:04:02.224Z,4.19
2022-12-08T00:04:12.436Z,4.14
2022-12-08T00:04:22.241Z,4.19
2022-12-08T00:04:32.440Z,4.24
2022-12-08T00:04:42.315Z,4.19
2022-12-08T00:04:52.364Z,4.19
2022-12-08T00:05:02.814Z,4.22
2022-12-08T00:05:12.188Z,4.22
2022-12-08T00:05:22.382Z,4.19
2022-12-08T00:05:32.321Z,4.19
2022-12-08T00:05:42.217Z,4.18
2022-12-08T00:05:52.294Z,4.19
2022-12-08T00:06:02.430Z,4.16
2022-12-08T00:06:12.458Z,4.18
2022-12-08T00:06:22.212Z,4.19
2022-12-08T00:06:32.369Z,4.22
2022-12-08T00:06:42.379Z,4.21
2022-12-08T00:06:52.372Z,4.22
2022-12-08T00:07:02.239Z,4.18
2022-12-08T00:07:12.284Z,4.18
2022-12-08T00:07:22.203Z,4.19
2022-12-08T00:07:32.348Z,4.19
2022-12-08T00:07:42.239Z,4.18
2022-12-08T00:07:52.382Z,4.19
2022-12-08T00:08:02.497Z,4.24
2022-12-08T00:08:12.284Z,4.19
2022-12-08T00:08:22.369Z,4.12
2022-12-08T00:08:32.205Z,4.18
2022-12-08T00:08:42.274Z,4.21
2022-12-08T00:08:52.262Z,4.19
2022-12-08T00:09:02.299Z,4.19
2022-12-08T00:09:12.421Z,4.16
2022-12-08T00:09:22.356Z,4.19
2022-12-08T00:09:38.182Z,4.15
2022-12-08T00:09:42.439Z,4.16
2022-12-08T00:09:52.278Z,4.22
2022-12-08T00:10:14.318Z,4.18
2022-12-08T00:10:46.648Z,4.19
2022-12-08T00:10:48.002Z,4.16
2022-12-08T00:10:49.715Z,4.21
2022-12-08T00:10:50.213Z,4.21
2022-12-08T00:10:52.262Z,4.16
2022-12-08T00:11:02.207Z,4.15
2022-12-08T00:11:12.295Z,4.22
2022-12-08T00:11:22.413Z,4.18
2022-12-08T00:11:32.373Z,4.19
2022-12-08T00:11:42.344Z,4.19
2022-12-08T00:11:52.215Z,4.22
2022-12-08T00:12:02.490Z,4.19
2022-12-08T00:12:12.320Z,4.24
2022-12-08T00:12:22.407Z,4.18
2022-12-08T00:12:32.268Z,4.19
2022-12-08T00:12:42.209Z,4.19
2022-12-08T00:12:52.340Z,4.19
2022-12-08T00:13:02.238Z,4.15
2022-12-08T00:13:12.270Z,4.18
2022-12-08T00:13:22.318Z,4.18
2022-12-08T00:13:32.226Z,4.18
2022-12-08T00:13:42.251Z,4.18
2022-12-08T00:13:52.355Z,4.21
2022-12-08T00:14:02.249Z,4.18
2022-12-08T00:14:12.282Z,4.16
2022-12-08T00:14:22.345Z,4.12
2022-12-08T00:14:32.452Z,4.19
2022-12-08T00:14:42.333Z,4.21
2022-12-08T00:14:52.326Z,4.19
2022-12-08T00:15:02.733Z,4.24
2022-12-08T00:15:12.465Z,4.22
2022-12-08T00:15:22.231Z,4.19
2022-12-08T00:15:32.255Z,4.24
2022-12-08T00:15:42.342Z,4.19
2022-12-08T00:15:52.300Z,4.21
2022-12-08T00:16:02.452Z,4.22
2022-12-08T00:16:12.295Z,4.22
2022-12-08T00:16:22.219Z,4.19
2022-12-08T00:16:32.408Z,4.18
2022-12-08T00:16:42.444Z,4.18
2022-12-08T00:16:52.446Z,4.26
2022-12-08T00:17:02.241Z,4.19
2022-12-08T00:17:12.448Z,4.22
2022-12-08T00:17:22.246Z,4.21
2022-12-08T00:17:32.233Z,4.22
2022-12-08T00:17:42.473Z,4.22
2022-12-08T00:17:52.226Z,4.15
2022-12-08T00:18:02.375Z,4.19
2022-12-08T00:18:12.404Z,4.18
2022-12-08T00:18:22.487Z,4.25
2022-12-08T00:18:32.319Z,4.25
2022-12-08T00:18:42.434Z,4.21
2022-12-08T00:18:52.286Z,4.22
2022-12-08T00:19:02.273Z,4.26
2022-12-08T00:19:12.486Z,4.19
2022-12-08T00:19:22.315Z,4.22
2022-12-08T00:19:32.327Z,4.25
2022-12-08T00:19:42.359Z,4.21
2022-12-08T00:19:52.361Z,4.25
2022-12-08T00:20:02.417Z,4.19
2022-12-08T00:20:12.402Z,4.24
2022-12-08T00:20:22.196Z,4.25
2022-12-08T00:20:32.353Z,4.25
2022-12-08T00:20:42.386Z,4.25
2022-12-08T00:20:52.555Z,4.24
2022-12-08T00:21:02.412Z,4.21
2022-12-08T00:21:12.471Z,4.22
2022-12-08T00:21:22.422Z,4.24
2022-12-08T00:21:32.435Z,4.28
2022-12-08T00:21:42.399Z,4.28
2022-12-08T00:21:52.433Z,4.24
2022-12-08T00:22:02.315Z,4.25
2022-12-08T00:22:12.410Z,4.24
2022-12-08T00:22:22.240Z,4.22
2022-12-08T00:22:32.343Z,4.24
2022-12-08T00:22:42.333Z,4.22
2022-12-08T00:22:52.315Z,4.22
2022-12-08T00:23:02.222Z,4.21
2022-12-08T00:23:12.252Z,4.18
2022-12-08T00:23:22.288Z,4.26
2022-12-08T00:23:32.343Z,4.25
2022-12-08T00:23:42.393Z,4.22
2022-12-08T00:23:52.211Z,4.22
2022-12-08T00:24:02.440Z,4.22
2022-12-08T00:24:12.256Z,4.19
2022-12-08T00:24:22.440Z,4.24
2022-12-08T00:24:32.208Z,4.24
2022-12-08T00:24:42.400Z,4.24
2022-12-08T00:24:52.367Z,4.24
2022-12-08T00:25:02.633Z,4.22
2022-12-08T00:25:12.447Z,4.25
2022-12-08T00:25:22.434Z,4.19
2022-12-08T00:25:32.299Z,4.28
2022-12-08T00:25:42.278Z,4.24
2022-12-08T00:25:52.410Z,4.25
2022-12-08T00:26:02.194Z,4.24
2022-12-08T00:26:12.361Z,4.25
2022-12-08T00:26:22.379Z,4.28
2022-12-08T00:26:32.357Z,4.25
2022-12-08T00:26:42.450Z,4.19
2022-12-08T00:26:52.340Z,4.25
2022-12-08T00:27:02.260Z,4.24
2022-12-08T00:27:12.437Z,4.25
2022-12-08T00:27:22.202Z,4.26
2022-12-08T00:27:32.286Z,4.25
2022-12-08T00:27:42.271Z,4.25
2022-12-08T00:27:52.249Z,4.22
2022-12-08T00:28:02.303Z,4.22
2022-12-08T00:28:12.237Z,4.26
2022-12-08T00:28:22.256Z,4.26
2022-12-08T00:28:32.285Z,4.24
2022-12-08T00:28:42.427Z,4.21
2022-12-08T00:28:52.190Z,4.22
2022-12-08T00:29:02.502Z,4.28
2022-12-08T00:29:17.128Z,4.33
2022-12-08T00:29:22.246Z,4.25
2022-12-08T00:29:32.360Z,4.21
2022-12-08T00:29:42.196Z,4.24
2022-12-08T00:29:52.220Z,4.25
2022-12-08T00:30:02.480Z,4.25
2022-12-08T00:30:12.222Z,4.21
2022-12-08T00:30:22.366Z,4.29
2022-12-08T00:30:32.294Z,4.24
2022-12-08T00:30:42.355Z,4.28
2022-12-08T00:30:52.358Z,4.26
2022-12-08T00:31:02.219Z,4.26
2022-12-08T00:31:12.273Z,4.19
2022-12-08T00:31:22.255Z,4.32
2022-12-08T00:31:32.515Z,4.26
2022-12-08T00:31:42.242Z,4.28
2022-12-08T00:31:52.490Z,4.26
2022-12-08T00:32:02.586Z,4.24
2022-12-08T00:32:12.429Z,4.28
2022-12-08T00:32:22.478Z,4.28
2022-12-08T00:32:32.307Z,4.33
2022-12-08T00:32:42.362Z,4.26
2022-12-08T00:32:52.453Z,4.29
2022-12-08T00:33:02.512Z,4.26
2022-12-08T00:33:12.441Z,4.32
2022-12-08T00:33:22.247Z,4.32
2022-12-08T00:33:32.306Z,4.21
2022-12-08T00:33:42.257Z,4.32
2022-12-08T00:33:52.476Z,4.25
2022-12-08T00:34:02.303Z,4.32
2022-12-08T00:34:12.287Z,4.26
2022-12-08T00:34:22.463Z,4.26
2022-12-08T00:34:32.363Z,4.28
2022-12-08T00:34:42.254Z,4.29
2022-12-08T00:34:52.237Z,4.22
2022-12-08T00:35:02.734Z,4.33
2022-12-08T00:35:12.580Z,4.26
2022-12-08T00:35:22.308Z,4.21
2022-12-08T00:35:32.261Z,4.26
2022-12-08T00:35:43.408Z,4.25
2022-12-08T00:35:52.448Z,4.25
2022-12-08T00:36:02.336Z,4.25
2022-12-08T00:36:12.298Z,4.24
2022-12-08T00:36:22.460Z,4.21
2022-12-08T00:36:32.203Z,4.26
2022-12-08T00:36:42.292Z,4.29
2022-12-08T00:36:52.446Z,4.32
2022-12-08T00:37:02.260Z,4.26
2022-12-08T00:37:12.193Z,4.28
2022-12-08T00:37:22.219Z,4.25
2022-12-08T00:37:32.272Z,4.32
2022-12-08T00:37:42.298Z,4.26
2022-12-08T00:37:56.164Z,4.21
2022-12-08T00:38:02.386Z,4.28
2022-12-08T00:38:12.238Z,4.24
2022-12-08T00:38:22.353Z,4.28
2022-12-08T00:38:32.515Z,4.26
2022-12-08T00:38:42.411Z,4.26
2022-12-08T00:38:52.339Z,4.28
2022-12-08T00:39:02.256Z,4.25
2022-12-08T00:39:12.226Z,4.24
2022-12-08T00:39:22.318Z,4.28
2022-12-08T00:39:32.407Z,4.26
2022-12-08T00:39:42.429Z,4.26
2022-12-08T00:39:52.306Z,4.22
2022-12-08T00:40:02.706Z,4.28
2022-12-08T00:40:12.306Z,4.25
2022-12-08T00:40:22.395Z,4.25
2022-12-08T00:40:32.430Z,4.26
2022-12-08T00:40:42.258Z,4.26
2022-12-08T00:40:52.287Z,4.29
2022-12-08T00:41:02.263Z,4.25
2022-12-08T00:41:12.315Z,4.28
2022-12-08T00:41:22.279Z,4.25
2022-12-08T00:41:32.328Z,4.26
2022-12-08T00:41:42.414Z,4.28
2022-12-08T00:41:52.491Z,4.29
2022-12-08T00:42:02.215Z,4.25
2022-12-08T00:42:12.485Z,4.25
2022-12-08T00:42:22.219Z,4.25
2022-12-08T00:42:32.205Z,4.28
2022-12-08T00:42:42.308Z,4.26
2022-12-08T00:42:52.349Z,4.28
2022-12-08T00:43:02.244Z,4.22
2022-12-08T00:43:12.209Z,4.25
2022-12-08T00:43:22.398Z,4.26
2022-12-08T00:43:32.349Z,4.26
2022-12-08T00:43:42.345Z,4.26
2022-12-08T00:43:52.474Z,4.26
2022-12-08T00:44:02.472Z,4.32
2022-12-08T00:44:12.375Z,4.25
2022-12-08T00:44:22.416Z,4.28
2022-12-08T00:44:32.282Z,4.24
2022-12-08T00:44:42.226Z,4.28
2022-12-08T00:44:52.332Z,4.28
2022-12-08T00:45:02.267Z,4.24
2022-12-08T00:45:12.508Z,4.25
2022-12-08T00:45:22.356Z,4.25
2022-12-08T00:45:32.468Z,4.25
2022-12-08T00:45:42.422Z,4.25
2022-12-08T00:45:52.471Z,4.25
2022-12-08T00:46:02.376Z,4.28
2022-12-08T00:46:12.560Z,4.25
2022-12-08T00:46:22.601Z,4.25
2022-12-08T00:46:32.438Z,4.26
2022-12-08T00:46:42.455Z,4.26
2022-12-08T00:46:52.363Z,4.28
2022-12-08T00:47:02.473Z,4.25
2022-12-08T00:47:12.273Z,4.29
2022-12-08T00:47:24.956Z,4.25
2022-12-08T00:47:32.235Z,4.24
2022-12-08T00:47:42.336Z,4.25
2022-12-08T00:47:52.438Z,4.24
2022-12-08T00:48:02.205Z,4.22
2022-12-08T00:48:12.357Z,4.21
2022-12-08T00:48:22.384Z,4.24
2022-12-08T00:48:32.256Z,4.24
2022-12-08T00:48:42.259Z,4.22
2022-12-08T00:48:52.221Z,4.24
2022-12-08T00:49:02.420Z,4.21
2022-12-08T00:49:12.376Z,4.24
2022-12-08T00:49:22.484Z,4.24
2022-12-08T00:49:32.253Z,4.26
2022-12-08T00:49:42.443Z,4.19
2022-12-08T00:49:52.421Z,4.24
2022-12-08T00:50:02.809Z,4.21
2022-12-08T00:50:12.231Z,4.25
2022-12-08T00:50:22.226Z,4.22
2022-12-08T00:50:32.271Z,4.21
2022-12-08T00:50:42.223Z,4.22
2022-12-08T00:50:52.304Z,4.21
2022-12-08T00:51:02.215Z,4.18
2022-12-08T00:51:12.453Z,4.19
2022-12-08T00:51:22.397Z,4.22
2022-12-08T00:51:32.308Z,4.19
2022-12-08T00:51:42.220Z,4.21
2022-12-08T00:51:52.468Z,4.22
2022-12-08T00:52:02.291Z,4.22
2022-12-08T00:52:12.454Z,4.24
2022-12-08T00:52:22.354Z,4.16
2022-12-08T00:52:32.494Z,4.19
2022-12-08T00:52:42.393Z,4.21
2022-12-08T00:52:52.209Z,4.19
2022-12-08T00:53:02.219Z,4.19
2022-12-08T00:53:12.263Z,4.21
2022-12-08T00:53:22.458Z,4.18
2022-12-08T00:53:32.323Z,4.19
2022-12-08T00:53:42.210Z,4.18
2022-12-08T00:53:52.270Z,4.22
2022-12-08T00:54:02.446Z,4.22
2022-12-08T00:54:12.417Z,4.22
2022-12-08T00:54:22.288Z,4.21
2022-12-08T00:54:32.369Z,4.16
2022-12-08T00:54:42.338Z,4.21
2022-12-08T00:54:52.458Z,4.21
2022-12-08T00:55:02.343Z,4.22
2022-12-08T00:55:12.484Z,4.19
2022-12-08T00:55:22.228Z,4.15
2022-12-08T00:55:32.382Z,4.16
2022-12-08T00:55:42.331Z,4.22
2022-12-08T00:55:52.491Z,4.19
2022-12-08T00:56:02.315Z,4.18
2022-12-08T00:56:12.315Z,4.15
2022-12-08T00:56:22.353Z,4.19
2022-12-08T00:56:32.435Z,4.19
2022-12-08T00:56:42.319Z,4.18
2022-12-08T00:56:52.327Z,4.18
2022-12-08T00:57:02.462Z,4.18
2022-12-08T00:57:12.337Z,4.10
2022-12-08T00:57:22.248Z,4.18
2022-12-08T00:57:32.530Z,4.16
2022-12-08T00:57:42.318Z,4.18
2022-12-08T00:57:52.449Z,4.18
2022-12-08T00:58:02.201Z,4.16
2022-12-08T00:58:12.508Z,4.19
2022-12-08T00:58:22.290Z,4.18
2022-12-08T00:58:32.442Z,4.19
2022-12-08T00:58:42.443Z,4.19
2022-12-08T00:58:52.290Z,4.16
2022-12-08T00:59:02.262Z,4.22
2022-12-08T00:59:12.331Z,4.16
2022-12-08T00:59:22.503Z,4.22
2022-12-08T00:59:32.379Z,4.15
2022-12-08T00:59:42.482Z,4.18
2022-12-08T00:59:52.236Z,4.19
2022-12-08T01:00:02.659Z,4.18
2022-12-08T01:00:12.260Z,4.19
2022-12-08T01:00:22.274Z,4.21
2022-12-08T01:00:32.247Z,4.19
2022-12-08T01:00:42.421Z,4.19
2022-12-08T01:00:52.270Z,4.18
2022-12-08T01:01:02.335Z,4.21
2022-12-08T01:01:12.483Z,4.19
2022-12-08T01:01:22.380Z,4.16
2022-12-08T01:01:32.285Z,4.16
2022-12-08T01:01:42.466Z,4.19
2022-12-08T01:01:52.281Z,4.19
2022-12-08T01:02:02.404Z,4.16
2022-12-08T01:02:12.498Z,4.12
2022-12-08T01:02:22.442Z,4.16
2022-12-08T01:02:32.203Z,4.16
2022-12-08T01:02:42.349Z,4.18
2022-12-08T01:02:52.386Z,4.16
2022-12-08T01:03:02.323Z,4.15
2022-12-08T01:03:12.452Z,4.19
2022-12-08T01:03:22.323Z,4.18
2022-12-08T01:03:32.408Z,4.15
2022-12-08T01:03:42.439Z,4.14
2022-12-08T01:03:52.315Z,4.16
2022-12-08T01:04:02.345Z,4.14
2022-12-08T01:04:12.200Z,4.14
2022-12-08T01:04:22.340Z,4.19
2022-12-08T01:04:32.219Z,4.15
2022-12-08T01:04:42.392Z,4.12
2022-12-08T01:04:52.191Z,4.15
2022-12-08T01:05:02.290Z,4.08
2022-12-08T01:05:12.424Z,4.15
2022-12-08T01:05:22.193Z,4.16
2022-12-08T01:05:32.470Z,4.14
2022-12-08T01:05:42.221Z,4.12
2022-12-08T01:05:52.280Z,4.19
2022-12-08T01:06:02.492Z,4.15
2022-12-08T01:06:12.399Z,4.16
2022-12-08T01:06:22.209Z,4.12
2022-12-08T01:06:32.257Z,4.14
2022-12-08T01:06:42.306Z,4.15
2022-12-08T01:06:52.218Z,4.14
2022-12-08T01:07:02.473Z,4.15
2022-12-08T01:07:12.313Z,4.08
2022-12-08T01:07:22.393Z,4.14
2022-12-08T01:07:32.274Z,4.21
2022-12-08T01:07:42.461Z,4.18
2022-12-08T01:07:52.362Z,4.15
2022-12-08T01:08:02.443Z,4.14
2022-12-08T01:08:12.382Z,4.14
2022-12-08T01:08:22.397Z,4.08
2022-12-08T01:08:32.423Z,4.14
2022-12-08T01:08:42.370Z,4.14
2022-12-08T01:08:52.214Z,4.15
2022-12-08T01:09:02.269Z,4.15
2022-12-08T01:09:12.300Z,4.16
2022-12-08T01:09:22.324Z,4.12
2022-12-08T01:09:32.270Z,4.19
2022-12-08T01:09:42.472Z,4.14
2022-12-08T01:09:52.295Z,4.15
2022-12-08T01:10:02.773Z,4.16
2022-12-08T01:10:12.215Z,4.14
2022-12-08T01:10:22.259Z,4.14
2022-12-08T01:10:32.343Z,4.08
2022-12-08T01:10:42.347Z,4.16
2022-12-08T01:10:52.198Z,4.15
2022-12-08T01:11:02.281Z,4.10
2022-12-08T01:11:12.432Z,4.15
2022-12-08T01:11:22.263Z,4.14
2022-12-08T01:11:32.217Z,4.08
2022-12-08T01:11:42.209Z,4.14
2022-12-08T01:11:52.394Z,4.12
2022-12-08T01:12:02.299Z,4.14
2022-12-08T01:12:12.331Z,4.14
2022-12-08T01:12:22.476Z,4.15
2022-12-08T01:12:32.212Z,4.12
2022-12-08T01:12:42.327Z,4.18
2022-12-08T01:12:52.249Z,4.12
2022-12-08T01:13:02.421Z,4.18
2022-12-08T01:13:12.356Z,4.15
2022-12-08T01:13:22.412Z,4.10
2022-12-08T01:13:32.477Z,4.12
2022-12-08T01:13:42.430Z,4.15
2022-12-08T01:13:52.244Z,4.16
2022-12-08T01:14:02.207Z,4.15
2022-12-08T01:14:12.240Z,4.10
2022-12-08T01:14:22.415Z,4.14
2022-12-08T01:14:32.306Z,4.15
2022-12-08T01:14:42.497Z,4.10
2022-12-08T01:14:52.396Z,4.12
2022-12-08T01:15:03.058Z,4.12
2022-12-08T01:15:12.262Z,4.15
2022-12-08T01:15:22.254Z,4.15
2022-12-08T01:15:32.323Z,4.10
2022-12-08T01:15:42.313Z,4.10
2022-12-08T01:15:52.418Z,4.15
2022-12-08T01:16:02.208Z,4.15
2022-12-08T01:16:12.351Z,4.14
2022-12-08T01:16:22.290Z,4.14
2022-12-08T01:16:32.265Z,4.15
2022-12-08T01:16:42.346Z,4.10
2022-12-08T01:16:52.462Z,4.16
2022-12-08T01:17:02.450Z,4.08
2022-12-08T01:17:12.516Z,4.12
2022-12-08T01:17:22.320Z,4.10
2022-12-08T01:17:32.385Z,4.15
2022-12-08T01:17:42.265Z,4.10
2022-12-08T01:17:52.219Z,4.16
2022-12-08T01:18:02.487Z,4.12
2022-12-08T01:18:12.409Z,4.15
2022-12-08T01:18:22.451Z,4.16
2022-12-08T01:18:32.380Z,4.14
2022-12-08T01:18:42.207Z,4.14
2022-12-08T01:18:52.420Z,4.14
2022-12-08T01:19:02.225Z,4.18
2022-12-08T01:19:12.474Z,4.10
2022-12-08T01:19:22.222Z,4.14
2022-12-08T01:19:32.283Z,4.16
2022-12-08T01:19:42.264Z,4.08
2022-12-08T01:19:52.262Z,4.12
2022-12-08T01:20:02.865Z,4.07
2022-12-08T01:20:12.284Z,4.12
2022-12-08T01:20:22.247Z,4.10
2022-12-08T01:20:32.339Z,4.14
2022-12-08T01:20:42.235Z,4.07
2022-12-08T01:20:52.253Z,4.12
2022-12-08T01:21:02.419Z,4.12
2022-12-08T01:21:12.278Z,4.10
2022-12-08T01:21:22.502Z,4.12
2022-12-08T01:21:32.379Z,4.12
2022-12-08T01:21:42.496Z,4.12
2022-12-08T01:21:52.231Z,4.08
2022-12-08T01:22:02.364Z,4.07
2022-12-08T01:22:12.517Z,4.12
2022-12-08T01:22:22.289Z,4.10
2022-12-08T01:22:32.455Z,4.10
2022-12-08T01:22:42.306Z,4.08
2022-12-08T01:22:52.477Z,4.10
2022-12-08T01:23:02.326Z,4.10
2022-12-08T01:23:12.422Z,4.08
2022-12-08T01:23:22.343Z,4.14
2022-12-08T01:23:32.344Z,4.12
2022-12-08T01:23:42.313Z,4.10
2022-12-08T01:23:52.337Z,4.07
2022-12-08T01:24:02.291Z,4.08
2022-12-08T01:24:12.503Z,4.12
2022-12-08T01:24:22.310Z,4.08
2022-12-08T01:24:32.377Z,4.08
2022-12-08T01:24:42.420Z,4.18
2022-12-08T01:24:52.489Z,4.10
2022-12-08T01:25:02.228Z,4.10
2022-12-08T01:25:12.302Z,4.10
2022-12-08T01:25:22.312Z,4.08
2022-12-08T01:25:32.299Z,4.08
2022-12-08T01:25:42.386Z,4.08
2022-12-08T01:25:52.193Z,4.06
2022-12-08T01:26:02.256Z,4.07
2022-12-08T01:26:12.354Z,4.12
2022-12-08T01:26:22.425Z,4.12
2022-12-08T01:26:32.352Z,4.18
2022-12-08T01:26:42.458Z,4.10
2022-12-08T01:26:52.364Z,4.08
2022-12-08T01:27:02.370Z,4.14
2022-12-08T01:27:12.248Z,4.14
2022-12-08T01:27:22.202Z,4.07
2022-12-08T01:27:32.418Z,4.08
2022-12-08T01:27:42.321Z,4.08
2022-12-08T01:27:52.424Z,4.08
2022-12-08T01:28:02.252Z,4.03
2022-12-08T01:28:13.145Z,4.14
2022-12-08T01:28:22.451Z,4.12
2022-12-08T01:28:32.202Z,4.12
2022-12-08T01:28:42.299Z,4.10
2022-12-08T01:28:52.232Z,4.12
2022-12-08T01:29:02.325Z,4.08
2022-12-08T01:29:12.402Z,4.07
2022-12-08T01:29:22.432Z,4.12
2022-12-08T01:29:32.368Z,4.08
2022-12-08T01:29:42.265Z,4.12
2022-12-08T01:29:52.481Z,4.18
2022-12-08T01:30:02.733Z,4.15
2022-12-08T01:30:12.437Z,4.08
2022-12-08T01:30:22.382Z,4.06
2022-12-08T01:30:32.239Z,4.12
2022-12-08T01:30:42.459Z,4.07
2022-12-08T01:30:52.441Z,4.15
2022-12-08T01:31:02.667Z,4.07
2022-12-08T01:31:12.301Z,4.10
2022-12-08T01:31:22.559Z,4.06
2022-12-08T01:31:32.487Z,4.08
2022-12-08T01:31:42.475Z,4.10
2022-12-08T01:31:52.291Z,4.10
2022-12-08T01:32:02.245Z,4.08
2022-12-08T01:32:12.190Z,4.07
2022-12-08T01:32:22.508Z,4.06
2022-12-08T01:32:32.472Z,4.10
2022-12-08T01:32:42.378Z,4.10
2022-12-08T01:32:52.260Z,4.14
2022-12-08T01:33:02.406Z,4.10
2022-12-08T01:33:12.196Z,4.12
2022-12-08T01:33:22.205Z,4.08
2022-12-08T01:33:32.401Z,4.10
2022-12-08T01:33:42.511Z,4.06
2022-12-08T01:33:52.371Z,4.07
2022-12-08T01:34:02.347Z,4.03
2022-12-08T01:34:12.317Z,4.08
2022-12-08T01:34:22.294Z,4.14
2022-12-08T01:34:32.271Z,4.12
2022-12-08T01:34:42.269Z,4.10
2022-12-08T01:34:52.236Z,4.10
2022-12-08T01:35:02.433Z,4.07
2022-12-08T01:35:12.454Z,4.06
2022-12-08T01:35:22.347Z,4.15
2022-12-08T01:35:32.351Z,4.12
2022-12-08T01:35:42.259Z,4.14
2022-12-08T01:35:52.384Z,4.08
2022-12-08T01:36:02.530Z,4.08
2022-12-08T01:36:12.309Z,4.07
2022-12-08T01:36:22.218Z,4.06
2022-12-08T01:36:32.430Z,4.14
2022-12-08T01:36:42.362Z,4.12
2022-12-08T01:36:52.224Z,4.08
2022-12-08T01:37:02.206Z,4.12
2022-12-08T01:37:12.400Z,4.07
2022-12-08T01:37:22.275Z,4.10
2022-12-08T01:37:32.321Z,4.10
2022-12-08T01:37:42.550Z,4.12
2022-12-08T01:37:52.532Z,4.07
2022-12-08T01:38:02.259Z,4.08
2022-12-08T01:38:12.433Z,4.06
2022-12-08T01:38:22.189Z,4.12
2022-12-08T01:38:32.314Z,4.08
2022-12-08T01:38:42.470Z,4.07
2022-12-08T01:38:52.304Z,4.08
2022-12-08T01:39:02.417Z,4.08
2022-12-08T01:39:12.215Z,4.08
2022-12-08T01:39:22.313Z,4.08
2022-12-08T01:39:32.249Z,4.12
2022-12-08T01:39:42.284Z,4.03
2022-12-08T01:39:52.291Z,4.08
2022-12-08T01:40:02.667Z,4.03
2022-12-08T01:40:12.463Z,4.06
2022-12-08T01:40:22.289Z,4.01
2022-12-08T01:40:32.389Z,4.08
2022-12-08T01:40:42.224Z,4.01
2022-12-08T01:40:52.304Z,4.07
2022-12-08T01:41:02.233Z,4.08
2022-12-08T01:41:12.482Z,4.04
2022-12-08T01:41:22.207Z,4.07
2022-12-08T01:41:32.470Z,4.07
2022-12-08T01:41:42.288Z,4.07
2022-12-08T01:41:52.357Z,4.06
2022-12-08T01:42:02.412Z,4.10
2022-12-08T01:42:12.498Z,4.07
2022-12-08T01:42:22.251Z,4.07
2022-12-08T01:42:32.225Z,4.07
2022-12-08T01:42:42.320Z,4.14
2022-12-08T01:42:52.329Z,4.08
2022-12-08T01:43:02.230Z,4.07
2022-12-08T01:43:12.441Z,4.07
2022-12-08T01:43:22.419Z,4.03
2022-12-08T01:43:32.492Z,4.10
2022-12-08T01:43:42.382Z,4.12
2022-12-08T01:43:52.228Z,4.08
2022-12-08T01:44:02.345Z,4.00
2022-12-08T01:44:12.439Z,4.08
2022-12-08T01:44:22.358Z,4.06
2022-12-08T01:44:32.437Z,4.06
2022-12-08T01:44:42.345Z,4.06
2022-12-08T01:44:52.277Z,4.06
2022-12-08T01:45:02.514Z,4.07
2022-12-08T01:45:12.313Z,4.08
2022-12-08T01:45:22.332Z,4.07
2022-12-08T01:45:32.235Z,4.14
2022-12-08T01:45:43.189Z,4.07
2022-12-08T01:45:52.293Z,4.10
2022-12-08T01:46:02.376Z,4.14
2022-12-08T01:46:12.491Z,4.08
2022-12-08T01:46:22.373Z,4.10
2022-12-08T01:46:32.461Z,4.08
2022-12-08T01:46:42.504Z,4.10
2022-12-08T01:46:52.272Z,4.08
2022-12-08T01:47:02.296Z,4.12
2022-12-08T01:47:12.357Z,4.06
2022-12-08T01:47:22.233Z,4.12
2022-12-08T01:47:32.441Z,4.04
2022-12-08T01:47:42.322Z,4.10
2022-12-08T01:47:52.370Z,4.07
2022-12-08T01:48:02.463Z,4.10
2022-12-08T01:48:12.573Z,4.10
2022-12-08T01:48:22.341Z,4.10
2022-12-08T01:48:32.386Z,4.12
2022-12-08T01:48:42.238Z,4.08
2022-12-08T01:48:52.198Z,4.08
2022-12-08T01:49:02.340Z,4.08
2022-12-08T01:49:12.283Z,4.14
2022-12-08T01:49:22.347Z,4.14
2022-12-08T01:49:32.513Z,4.04
2022-12-08T01:49:42.345Z,4.10
2022-12-08T01:49:52.304Z,4.10
2022-12-08T01:50:02.591Z,4.12
2022-12-08T01:50:12.272Z,4.10
2022-12-08T01:50:22.521Z,4.07
2022-12-08T01:50:32.212Z,4.12
2022-12-08T01:50:42.255Z,4.08
2022-12-08T01:50:52.446Z,4.07
2022-12-08T01:51:02.386Z,4.08
2022-12-08T01:51:12.312Z,4.07
2022-12-08T01:51:22.417Z,4.07
2022-12-08T01:51:32.304Z,4.07
2022-12-08T01:51:42.379Z,4.10
2022-12-08T01:51:52.316Z,4.08
2022-12-08T01:52:02.293Z,4.08
2022-12-08T01:52:12.199Z,4.08
2022-12-08T01:52:22.274Z,4.10
2022-12-08T01:52:32.496Z,4.10
2022-12-08T01:52:42.323Z,4.14
2022-12-08T01:52:52.260Z,4.07
2022-12-08T01:53:02.371Z,4.07
2022-12-08T01:53:12.386Z,4.07
2022-12-08T01:53:22.395Z,4.06
2022-12-08T01:53:32.367Z,4.04
2022-12-08T01:53:42.462Z,4.08
2022-12-08T01:53:52.227Z,4.06
2022-12-08T01:54:02.368Z,4.08
2022-12-08T01:54:12.305Z,4.06
2022-12-08T01:54:22.314Z,4.08
2022-12-08T01:54:32.255Z,4.12
2022-12-08T01:54:42.288Z,4.08
2022-12-08T01:54:52.241Z,4.08
2022-12-08T01:55:02.350Z,4.07
2022-12-08T01:55:12.397Z,4.07
2022-12-08T01:55:22.320Z,4.06
2022-12-08T01:55:32.354Z,4.08
2022-12-08T01:55:42.387Z,4.08
2022-12-08T01:55:52.434Z,4.04
2022-12-08T01:56:02.436Z,4.03
2022-12-08T01:56:12.260Z,4.06
2022-12-08T01:56:22.384Z,4.04
2022-12-08T01:56:32.441Z,4.06
2022-12-08T01:56:42.239Z,4.07
2022-12-08T01:56:52.289Z,4.08
2022-12-08T01:57:02.334Z,4.03
2022-12-08T01:57:12.191Z,4.07
2022-12-08T01:57:22.492Z,4.08
2022-12-08T01:57:32.319Z,4.08
2022-12-08T01:57:42.299Z,4.06
2022-12-08T01:57:52.258Z,4.08
2022-12-08T01:58:02.281Z,4.04
2022-12-08T01:58:12.455Z,4.08
2022-12-08T01:58:22.278Z,4.06
2022-12-08T01:58:32.421Z,4.07
2022-12-08T01:58:42.412Z,4.03
2022-12-08T01:58:52.384Z,4.06
2022-12-08T01:59:02.304Z,4.04
2022-12-08T01:59:12.373Z,4.07
2022-12-08T01:59:22.448Z,4.03
2022-12-08T01:59:32.355Z,4.07
2022-12-08T01:59:42.279Z,4.07
2022-12-08T01:59:52.328Z,4.08
2022-12-08T02:00:02.678Z,4.07
2022-12-08T02:00:12.406Z,4.08
2022-12-08T02:00:22.473Z,4.06
2022-12-08T02:00:32.397Z,4.06
2022-12-08T02:00:42.346Z,4.12
2022-12-08T02:00:52.612Z,4.04
2022-12-08T02:01:02.431Z,4.06
2022-12-08T02:01:12.581Z,4.03
2022-12-08T02:01:22.301Z,4.04
2022-12-08T02:01:32.300Z,4.06
2022-12-08T02:01:42.401Z,4.04
2022-12-08T02:01:52.472Z,4.07
2022-12-08T02:02:02.506Z,4.04
2022-12-08T02:02:12.482Z,4.04
2022-12-08T02:02:22.364Z,4.03
2022-12-08T02:02:32.309Z,4.07
2022-12-08T02:02:42.287Z,4.08
2022-12-08T02:02:52.491Z,4.04
2022-12-08T02:03:02.481Z,4.07
2022-12-08T02:03:12.426Z,4.06
2022-12-08T02:03:22.429Z,4.06
2022-12-08T02:03:32.277Z,4.08
2022-12-08T02:03:42.278Z,4.07
2022-12-08T02:03:52.433Z,4.03
2022-12-08T02:04:02.265Z,4.07
2022-12-08T02:04:12.339Z,4.07
2022-12-08T02:04:22.295Z,4.03
2022-12-08T02:04:32.209Z,4.04
2022-12-08T02:04:42.400Z,4.06
2022-12-08T02:04:52.358Z,4.06
2022-12-08T02:05:02.309Z,4.06
2022-12-08T02:05:12.238Z,4.01
2022-12-08T02:05:22.234Z,3.96
2022-12-08T02:05:32.426Z,4.06
2022-12-08T02:05:42.507Z,4.07
2022-12-08T02:05:52.356Z,4.04
2022-12-08T02:06:02.386Z,4.07
2022-12-08T02:06:12.239Z,4.03
2022-12-08T02:06:22.339Z,4.07
2022-12-08T02:06:32.232Z,4.08
2022-12-08T02:06:42.200Z,4.08
2022-12-08T02:06:52.504Z,4.04
2022-12-08T02:07:07.672Z,4.04
2022-12-08T02:07:12.447Z,4.01
2022-12-08T02:07:22.467Z,4.01
2022-12-08T02:07:32.206Z,4.07
2022-12-08T02:07:42.432Z,4.08
2022-12-08T02:07:52.312Z,4.01
2022-12-08T02:08:02.481Z,4.00
2022-12-08T02:08:12.550Z,4.04
2022-12-08T02:08:22.336Z,4.04
2022-12-08T02:08:32.451Z,4.03
2022-12-08T02:08:42.286Z,4.07
2022-12-08T02:08:52.203Z,4.06
2022-12-08T02:09:02.340Z,4.04
2022-12-08T02:09:12.363Z,4.03
2022-12-08T02:09:22.358Z,4.01
2022-12-08T02:09:32.375Z,4.04
2022-12-08T02:09:42.304Z,4.06
2022-12-08T02:09:52.221Z,4.04
2022-12-08T02:10:02.458Z,4.06
2022-12-08T02:10:12.269Z,4.06
2022-12-08T02:10:22.503Z,4.07
2022-12-08T02:10:32.537Z,4.01
2022-12-08T02:10:42.507Z,4.07
2022-12-08T02:10:52.238Z,4.06
2022-12-08T02:11:02.495Z,4.07
2022-12-08T02:11:12.312Z,4.08
2022-12-08T02:11:22.203Z,4.01
2022-12-08T02:11:32.219Z,4.03
2022-12-08T02:11:42.390Z,4.06
2022-12-08T02:11:52.258Z,4.04
2022-12-08T02:12:02.466Z,4.06
2022-12-08T02:12:12.248Z,4.04
2022-12-08T02:12:22.315Z,4.10
2022-12-08T02:12:32.285Z,4.03
2022-12-08T02:12:42.334Z,4.04
2022-12-08T02:12:52.446Z,4.10
2022-12-08T02:13:02.281Z,4.04